Hlavní strana
METAR-TAF:

METAR-TAF

Letiště :

Talara, Peru

zeměpisná šířka: 04-34S, zeměpisná délka: 081-15W, výška: 85 m

Aktuální stav počasí

Zpráva byla vytvořena před 10 hodinami a 36 minutami, v 00:00 UTC
Jihojihozápadní vítr 8 kt
Teplota 25°C
Vlhkost vzduchu 69%
Tlak 1011 hPa
Viditelnost 10 km a více
Žádná oblačnost pod 1500 m, nevyskytují se cumulonimby.

METAR: SPYL 240000Z 20008KT CAVOK 25/19 Q1011 RMK BIRD HAZARD RWY 17/35 PP000

Čas: 05:36 (10:36 UTC)

Předpověď počasí

Zpráva byla vytvořena před 17 hodinami a 36 minutami, v 17:00 UTC
Předpověď platná od 23 v 18 UTC do 24 v 18 UTC
Západojihozápadní vítr 12 kt
Viditelnost 10 km a více
Polojasno ve výšce 4000 ft

TAF: SPYL 231700Z 2318/2418 24012KT 9999 SCT040 TX31/2319Z TN22/2411Z

Stav a předpovědi počasí z více než 4 000 letišť (zprávy METAR a TAF).

Červené a žluté tečky na mapě představují dostupné meteorologické stanice.

Když kurzor umístíte na tečku, zobrazí se název stanice.

Pak kliknutím zobrazíte stav a předpověď počasí.

Chcete-li změnit mapu, kliknutím na zelené tlačítko se znaménkem +mapu přiblížíte, kliknutím na zelené tlačítko se znaménkem – mapu oddálíte a kliknutím na zelené šipky přejdete na sousední mapy.


METAR-TAF: